KMTJ/MTJ METAR and TAF weather

Enter ICAO airport designator
Station Type Date Time Source
KMTJ METAR 2019/12/08 16:53 UTC NOAA

KMTJ 081653Z AUTO 08004KT 10SM SCT047 BKN060 BKN120 04/02 A2996 RMK AO2 RAB1555E05 SLP125 P0000 T00390017


Station Type Date Time Source
KMTJ Decoded METAR 2019/12/08 16:53 UTC NOAA

MONTROSE REGIONAL AIRPORT, CO, United States (KMTJ) 38-30N 107-54W 1750M
Dec 08, 2019 - 11:53 AM EST / 2019.12.08 1653 UTC
Wind: from the E (080 degrees) at 5 MPH (4 KT):0
Visibility: 10 mile(s):0
Sky conditions: mostly cloudy
Precipitation last hour: A trace
Temperature: 39.0 F (3.9 C)
Dew Point: 35.1 F (1.7 C)
Relative Humidity: 85%
Pressure (altimeter): 29.96 in. Hg (1014 hPa)
ob: KMTJ 081653Z AUTO 08004KT 10SM SCT047 BKN060 BKN120 04/02 A2996 RMK AO2 RAB1555E05 SLP125 P0000 T00390017
cycle: 17

Station Type Date Time Source
KMTJ TAF 2019/12/08 12:34 UTC NOAA

TAF KMTJ 081131Z 0812/0912 14005KT P6SM VCSH BKN045 OVC060
TEMPO 0812/0816 -SHRA SCT030 OVC040
FM081600 VRB03KT P6SM -SHRA OVC030
FM090700 VRB03KT 6SM -SHRASN SCT019 BKN035
FM090900 00000KT 6SM -SHSN SCT015 BKN030
FM091000 VRB03KT P6SM SCT028 BKN030

Example: see airport list